sensor_id;sensor_type;location;lat;lon;timestamp;pressure;altitude;pressure_sealevel;temperature;humidity
7836;BME280;3963;42.658;23.298;2023-03-13T00:01:32;58333.06;;;2.09;74.83
7836;BME280;3963;42.658;23.298;2023-03-13T00:03:59;58281.50;;;2.09;74.30
7836;BME280;3963;42.658;23.298;2023-03-13T00:06:30;58348.56;;;2.29;72.62
7836;BME280;3963;42.658;23.298;2023-03-13T00:08:57;58335.78;;;2.29;71.39
7836;BME280;3963;42.658;23.298;2023-03-13T00:11:25;58345.13;;;2.18;73.13
7836;BME280;3963;42.658;23.298;2023-03-13T00:13:53;58325.84;;;2.07;72.18
7836;BME280;3963;42.658;23.298;2023-03-13T00:16:20;58326.22;;;2.03;72.50
7836;BME280;3963;42.658;23.298;2023-03-13T00:18:49;58305.63;;;1.98;72.75
7836;BME280;3963;42.658;23.298;2023-03-13T00:21:17;58298.16;;;1.88;73.06
7836;BME280;3963;42.658;23.298;2023-03-13T00:23:46;58270.72;;;1.77;73.05
7836;BME280;3963;42.658;23.298;2023-03-13T00:26:15;58301.78;;;1.75;73.55
7836;BME280;3963;42.658;23.298;2023-03-13T00:28:42;58279.09;;;1.67;73.69
7836;BME280;3963;42.658;23.298;2023-03-13T00:31:11;58277.88;;;1.76;73.54
7836;BME280;3963;42.658;23.298;2023-03-13T00:33:39;58239.88;;;1.69;74.01
7836;BME280;3963;42.658;23.298;2023-03-13T00:36:08;58296.06;;;1.72;73.64
7836;BME280;3963;42.658;23.298;2023-03-13T00:38:36;58247.81;;;1.47;75.97
7836;BME280;3963;42.658;23.298;2023-03-13T00:41:06;58257.69;;;1.37;75.90
7836;BME280;3963;42.658;23.298;2023-03-13T00:43:34;58247.28;;;1.47;75.84
7836;BME280;3963;42.658;23.298;2023-03-13T00:46:01;58252.38;;;1.32;76.73
7836;BME280;3963;42.658;23.298;2023-03-13T00:48:28;58259.50;;;1.46;76.39
7836;BME280;3963;42.658;23.298;2023-03-13T00:50:56;58240.31;;;1.52;76.72
7836;BME280;3963;42.658;23.298;2023-03-13T00:53:22;58290.81;;;1.52;76.42
7836;BME280;3963;42.658;23.298;2023-03-13T00:55:53;58251.88;;;1.46;77.26
7836;BME280;3963;42.658;23.298;2023-03-13T00:58:23;58232.78;;;1.40;79.46
7836;BME280;3963;42.658;23.298;2023-03-13T01:00:51;58246.56;;;1.56;77.86
7836;BME280;3963;42.658;23.298;2023-03-13T01:03:18;58237.06;;;1.47;79.82
7836;BME280;3963;42.658;23.298;2023-03-13T01:05:53;58262.56;;;1.47;80.41
7836;BME280;3963;42.658;23.298;2023-03-13T01:08:20;58232.06;;;1.49;81.13
7836;BME280;3963;42.658;23.298;2023-03-13T01:10:47;58227.06;;;1.52;81.32
7836;BME280;3963;42.658;23.298;2023-03-13T01:13:13;58292.28;;;1.51;80.67
7836;BME280;3963;42.658;23.298;2023-03-13T01:15:41;58254.69;;;1.39;81.74
7836;BME280;3963;42.658;23.298;2023-03-13T01:18:08;58226.91;;;1.32;83.07
7836;BME280;3963;42.658;23.298;2023-03-13T01:20:35;58223.75;;;1.29;84.75
7836;BME280;3963;42.658;23.298;2023-03-13T01:23:02;58224.78;;;1.30;85.40
7836;BME280;3963;42.658;23.298;2023-03-13T01:25:29;58218.28;;;1.34;87.29
7836;BME280;3963;42.658;23.298;2023-03-13T01:27:55;58199.66;;;1.26;88.29
7836;BME280;3963;42.658;23.298;2023-03-13T01:30:22;58259.25;;;1.24;89.32
7836;BME280;3963;42.658;23.298;2023-03-13T01:32:50;58220.94;;;1.22;88.67
7836;BME280;3963;42.658;23.298;2023-03-13T01:35:17;58225.78;;;1.14;89.09
7836;BME280;3963;42.658;23.298;2023-03-13T01:37:44;58188.44;;;1.10;90.63
7836;BME280;3963;42.658;23.298;2023-03-13T01:40:11;58161.28;;;1.06;91.01
7836;BME280;3963;42.658;23.298;2023-03-13T01:42:51;58178.50;;;1.03;90.78
7836;BME280;3963;42.658;23.298;2023-03-13T01:45:50;58160.25;;;0.90;92.37
7836;BME280;3963;42.658;23.298;2023-03-13T01:48:21;58176.84;;;0.84;92.95
7836;BME280;3963;42.658;23.298;2023-03-13T01:50:52;58175.56;;;0.76;94.68
7836;BME280;3963;42.658;23.298;2023-03-13T01:53:19;58167.03;;;0.80;97.93
7836;BME280;3963;42.658;23.298;2023-03-13T01:55:46;58122.25;;;0.66;100.00
7836;BME280;3963;42.658;23.298;2023-03-13T01:58:13;58156.34;;;0.65;100.00
7836;BME280;3963;42.658;23.298;2023-03-13T02:00:40;58110.94;;;0.63;99.42
7836;BME280;3963;42.658;23.298;2023-03-13T02:03:11;58170.13;;;0.66;99.27
7836;BME280;3963;42.658;23.298;2023-03-13T02:05:40;58140.44;;;0.62;99.98
7836;BME280;3963;42.658;23.298;2023-03-13T02:08:13;58168.06;;;0.81;98.48
7836;BME280;3963;42.658;23.298;2023-03-13T02:10:48;58152.63;;;0.76;96.92
7836;BME280;3963;42.658;23.298;2023-03-13T02:13:18;58137.34;;;0.76;95.75
7836;BME280;3963;42.658;23.298;2023-03-13T02:15:46;58156.06;;;0.72;95.12
7836;BME280;3963;42.658;23.298;2023-03-13T02:18:15;58132.34;;;0.64;92.38
7836;BME280;3963;42.658;23.298;2023-03-13T02:20:43;58130.88;;;0.65;92.16
7836;BME280;3963;42.658;23.298;2023-03-13T02:23:17;58097.69;;;0.62;90.83
7836;BME280;3963;42.658;23.298;2023-03-13T02:25:47;58146.09;;;0.47;91.60
7836;BME280;3963;42.658;23.298;2023-03-13T02:28:17;58095.44;;;0.40;91.22
7836;BME280;3963;42.658;23.298;2023-03-13T02:30:46;58100.97;;;0.38;90.74
7836;BME280;3963;42.658;23.298;2023-03-13T02:33:15;58080.44;;;0.33;92.46
7836;BME280;3963;42.658;23.298;2023-03-13T02:35:44;58040.22;;;0.02;94.36
7836;BME280;3963;42.658;23.298;2023-03-13T02:38:15;58066.59;;;0.15;98.54
7836;BME280;3963;42.658;23.298;2023-03-13T02:40:47;58068.44;;;0.10;98.75
7836;BME280;3963;42.658;23.298;2023-03-13T02:43:17;58051.00;;;0.05;100.00
7836;BME280;3963;42.658;23.298;2023-03-13T02:46:04;58073.72;;;0.15;99.43
7836;BME280;3963;42.658;23.298;2023-03-13T02:48:33;58063.44;;;0.12;100.00
7836;BME280;3963;42.658;23.298;2023-03-13T02:51:02;58082.47;;;0.18;99.31
7836;BME280;3963;42.658;23.298;2023-03-13T02:53:31;58060.47;;;-0.01;100.00
7836;BME280;3963;42.658;23.298;2023-03-13T02:56:00;58044.94;;;0.07;100.00
7836;BME280;3963;42.658;23.298;2023-03-13T02:58:36;58081.34;;;0.15;100.00
7836;BME280;3963;42.658;23.298;2023-03-13T03:01:04;58077.13;;;0.11;100.00
7836;BME280;3963;42.658;23.298;2023-03-13T03:03:32;58075.13;;;0.11;100.00
7836;BME280;3963;42.658;23.298;2023-03-13T03:06:00;58034.53;;;-0.01;100.00
7836;BME280;3963;42.658;23.298;2023-03-13T03:08:27;58051.00;;;0.05;100.00
7836;BME280;3963;42.658;23.298;2023-03-13T03:10:54;58047.94;;;0.05;99.72
7836;BME280;3963;42.658;23.298;2023-03-13T03:13:22;58054.78;;;-0.04;100.00
7836;BME280;3963;42.658;23.298;2023-03-13T03:15:49;58012.25;;;0.02;100.00
7836;BME280;3963;42.658;23.298;2023-03-13T03:18:16;58034.34;;;-0.06;100.00
7836;BME280;3963;42.658;23.298;2023-03-13T03:20:43;58044.44;;;-0.09;100.00
7836;BME280;3963;42.658;23.298;2023-03-13T03:23:10;58002.63;;;-0.12;100.00
7836;BME280;3963;42.658;23.298;2023-03-13T03:25:37;58019.63;;;-0.20;100.00
7836;BME280;3963;42.658;23.298;2023-03-13T03:28:04;58017.09;;;-0.20;100.00
7836;BME280;3963;42.658;23.298;2023-03-13T03:30:32;58019.63;;;-0.20;100.00
7836;BME280;3963;42.658;23.298;2023-03-13T03:33:01;58002.88;;;-0.19;100.00
7836;BME280;3963;42.658;23.298;2023-03-13T03:35:28;58028.31;;;-0.19;100.00
7836;BME280;3963;42.658;23.298;2023-03-13T03:37:55;58044.53;;;-0.21;100.00
7836;BME280;3963;42.658;23.298;2023-03-13T03:40:22;58026.47;;;-0.14;100.00
7836;BME280;3963;42.658;23.298;2023-03-13T03:42:49;58029.00;;;-0.14;100.00
7836;BME280;3963;42.658;23.298;2023-03-13T03:45:16;58030.59;;;-0.12;100.00
7836;BME280;3963;42.658;23.298;2023-03-13T03:47:44;58044.09;;;-0.19;100.00
7836;BME280;3963;42.658;23.298;2023-03-13T03:50:11;58026.72;;;-0.21;100.00
7836;BME280;3963;42.658;23.298;2023-03-13T03:52:37;58031.38;;;-0.19;100.00
7836;BME280;3963;42.658;23.298;2023-03-13T03:55:04;58034.28;;;-0.23;100.00
7836;BME280;3963;42.658;23.298;2023-03-13T03:57:31;58042.34;;;-0.40;100.00
7836;BME280;3963;42.658;23.298;2023-03-13T03:59:59;58040.66;;;-0.29;100.00
7836;BME280;3963;42.658;23.298;2023-03-13T04:02:25;58034.44;;;-0.33;100.00
7836;BME280;3963;42.658;23.298;2023-03-13T04:04:53;58003.16;;;-0.26;100.00
7836;BME280;3963;42.658;23.298;2023-03-13T04:07:20;58022.88;;;-0.29;100.00
7836;BME280;3963;42.658;23.298;2023-03-13T04:09:47;57946.50;;;-0.49;100.00
7836;BME280;3963;42.658;23.298;2023-03-13T04:12:14;58001.16;;;-0.55;100.00
7836;BME280;3963;42.658;23.298;2023-03-13T04:14:41;57961.56;;;-0.69;100.00
7836;BME280;3963;42.658;23.298;2023-03-13T04:17:07;57981.91;;;-0.54;100.00
7836;BME280;3963;42.658;23.298;2023-03-13T04:19:34;57976.38;;;-0.52;100.00
7836;BME280;3963;42.658;23.298;2023-03-13T04:22:03;57972.16;;;-0.56;100.00
7836;BME280;3963;42.658;23.298;2023-03-13T04:24:30;57945.44;;;-0.50;100.00
7836;BME280;3963;42.658;23.298;2023-03-13T04:26:56;58020.97;;;-0.41;100.00
7836;BME280;3963;42.658;23.298;2023-03-13T04:29:23;57948.88;;;-0.54;100.00
7836;BME280;3963;42.658;23.298;2023-03-13T04:31:50;57969.47;;;-0.61;100.00
7836;BME280;3963;42.658;23.298;2023-03-13T04:34:17;57931.19;;;-0.66;100.00
7836;BME280;3963;42.658;23.298;2023-03-13T04:36:44;57970.06;;;-0.58;100.00
7836;BME280;3963;42.658;23.298;2023-03-13T04:39:12;58017.13;;;-0.49;100.00
7836;BME280;3963;42.658;23.298;2023-03-13T04:41:39;57963.00;;;-0.72;100.00
7836;BME280;3963;42.658;23.298;2023-03-13T04:44:05;57890.41;;;-0.86;100.00
7836;BME280;3963;42.658;23.298;2023-03-13T04:46:32;57945.31;;;-0.84;100.00
7836;BME280;3963;42.658;23.298;2023-03-13T04:48:59;57930.75;;;-0.79;100.00
7836;BME280;3963;42.658;23.298;2023-03-13T04:51:26;57967.63;;;-0.70;100.00
7836;BME280;3963;42.658;23.298;2023-03-13T04:53:52;57942.13;;;-0.73;100.00
7836;BME280;3963;42.658;23.298;2023-03-13T04:56:24;57841.25;;;-0.82;100.00
7836;BME280;3963;42.658;23.298;2023-03-13T04:58:52;57981.47;;;-0.67;100.00
7836;BME280;3963;42.658;23.298;2023-03-13T05:01:19;57955.63;;;-0.65;100.00
7836;BME280;3963;42.658;23.298;2023-03-13T05:04:10;58008.63;;;-0.60;100.00
7836;BME280;3963;42.658;23.298;2023-03-13T05:06:37;57944.84;;;-0.68;100.00
7836;BME280;3963;42.658;23.298;2023-03-13T05:09:04;57965.78;;;-0.65;100.00
7836;BME280;3963;42.658;23.298;2023-03-13T05:11:33;57918.81;;;-0.56;100.00
7836;BME280;3963;42.658;23.298;2023-03-13T05:14:00;57979.16;;;-0.44;100.00
7836;BME280;3963;42.658;23.298;2023-03-13T05:16:27;57995.91;;;-0.45;100.00
7836;BME280;3963;42.658;23.298;2023-03-13T05:18:53;57963.59;;;-0.54;100.00
7836;BME280;3963;42.658;23.298;2023-03-13T05:21:20;57968.47;;;-0.45;100.00
7836;BME280;3963;42.658;23.298;2023-03-13T05:23:47;58009.31;;;-0.40;100.00
7836;BME280;3963;42.658;23.298;2023-03-13T05:26:13;57974.88;;;-0.36;100.00
7836;BME280;3963;42.658;23.298;2023-03-13T05:28:42;57985.81;;;-0.28;100.00
7836;BME280;3963;42.658;23.298;2023-03-13T05:31:08;58019.09;;;-0.21;100.00
7836;BME280;3963;42.658;23.298;2023-03-13T05:33:35;58022.53;;;-0.25;100.00
7836;BME280;3963;42.658;23.298;2023-03-13T05:36:02;58017.09;;;-0.20;100.00
7836;BME280;3963;42.658;23.298;2023-03-13T05:38:29;58028.84;;;-0.19;100.00
7836;BME280;3963;42.658;23.298;2023-03-13T05:40:56;57993.63;;;-0.38;100.00
7836;BME280;3963;42.658;23.298;2023-03-13T05:43:23;58013.78;;;-0.28;100.00
7836;BME280;3963;42.658;23.298;2023-03-13T05:45:52;57997.34;;;-0.17;100.00
7836;BME280;3963;42.658;23.298;2023-03-13T05:48:18;58020.94;;;-0.26;100.00
7836;BME280;3963;42.658;23.298;2023-03-13T05:50:45;57986.25;;;-0.30;100.00
7836;BME280;3963;42.658;23.298;2023-03-13T05:53:12;58000.19;;;-0.24;100.00
7836;BME280;3963;42.658;23.298;2023-03-13T05:55:39;58002.09;;;-0.13;100.00
7836;BME280;3963;42.658;23.298;2023-03-13T05:58:06;58005.84;;;-0.07;100.00
7836;BME280;3963;42.658;23.298;2023-03-13T06:00:32;58051.34;;;0.00;100.00
7836;BME280;3963;42.658;23.298;2023-03-13T06:03:01;58058.53;;;0.17;100.00
7836;BME280;3963;42.658;23.298;2023-03-13T06:05:28;58068.41;;;0.24;100.00
7836;BME280;3963;42.658;23.298;2023-03-13T06:07:54;58071.22;;;0.32;100.00
7836;BME280;3963;42.658;23.298;2023-03-13T06:10:21;58097.97;;;0.40;100.00
7836;BME280;3963;42.658;23.298;2023-03-13T06:12:51;58092.44;;;0.42;100.00
7836;BME280;3963;42.658;23.298;2023-03-13T06:15:19;58121.25;;;0.50;100.00
7836;BME280;3963;42.658;23.298;2023-03-13T06:17:46;58065.84;;;0.53;100.00
7836;BME280;3963;42.658;23.298;2023-03-13T06:20:14;58097.16;;;0.62;100.00
7836;BME280;3963;42.658;23.298;2023-03-13T06:22:41;58122.97;;;0.72;100.00
7836;BME280;3963;42.658;23.298;2023-03-13T06:25:09;58118.38;;;0.72;100.00
7836;BME280;3963;42.658;23.298;2023-03-13T06:27:35;58135.34;;;0.76;100.00
7836;BME280;3963;42.658;23.298;2023-03-13T06:30:02;58126.00;;;0.87;100.00
7836;BME280;3963;42.658;23.298;2023-03-13T06:32:29;58125.91;;;0.99;100.00
7836;BME280;3963;42.658;23.298;2023-03-13T06:34:56;58193.38;;;0.90;100.00
7836;BME280;3963;42.658;23.298;2023-03-13T06:37:24;58144.47;;;0.75;100.00
7836;BME280;3963;42.658;23.298;2023-03-13T06:39:51;58154.72;;;1.07;100.00
7836;BME280;3963;42.658;23.298;2023-03-13T06:42:18;58175.78;;;1.13;100.00
7836;BME280;3963;42.658;23.298;2023-03-13T06:44:45;58183.97;;;1.13;99.25
7836;BME280;3963;42.658;23.298;2023-03-13T06:47:11;58176.75;;;1.11;98.63
7836;BME280;3963;42.658;23.298;2023-03-13T06:49:38;58149.16;;;1.09;97.83
7836;BME280;3963;42.658;23.298;2023-03-13T06:52:05;58161.22;;;1.03;99.15
7836;BME280;3963;42.658;23.298;2023-03-13T06:54:33;58170.84;;;1.18;98.31
7836;BME280;3963;42.658;23.298;2023-03-13T06:57:00;58222.25;;;1.30;97.52
7836;BME280;3963;42.658;23.298;2023-03-13T06:59:27;58208.00;;;1.46;96.62
7836;BME280;3963;42.658;23.298;2023-03-13T07:01:54;58220.19;;;1.60;95.41
7836;BME280;3963;42.658;23.298;2023-03-13T07:04:20;58244.97;;;1.69;92.36
7836;BME280;3963;42.658;23.298;2023-03-13T07:06:47;58247.78;;;1.62;89.64
7836;BME280;3963;42.658;23.298;2023-03-13T07:09:14;58284.38;;;1.73;89.81
7836;BME280;3963;42.658;23.298;2023-03-13T07:11:42;58251.47;;;1.80;88.54
7836;BME280;3963;42.658;23.298;2023-03-13T07:14:09;58265.81;;;1.82;84.63
7836;BME280;3963;42.658;23.298;2023-03-13T07:16:35;58274.50;;;1.83;83.16
7836;BME280;3963;42.658;23.298;2023-03-13T07:19:02;58255.31;;;1.89;80.72
7836;BME280;3963;42.658;23.298;2023-03-13T07:21:29;58260.91;;;2.04;80.93
7836;BME280;3963;42.658;23.298;2023-03-13T07:23:56;58301.41;;;2.08;80.11
7836;BME280;3963;42.658;23.298;2023-03-13T07:26:22;58314.94;;;2.16;79.87
7836;BME280;3963;42.658;23.298;2023-03-13T07:28:51;58327.06;;;2.28;79.59
7836;BME280;3963;42.658;23.298;2023-03-13T07:31:19;58317.13;;;2.36;79.28
7836;BME280;3963;42.658;23.298;2023-03-13T07:33:46;58342.63;;;2.50;77.33
7836;BME280;3963;42.658;23.298;2023-03-13T07:36:14;58361.53;;;2.51;78.07
7836;BME280;3963;42.658;23.298;2023-03-13T07:38:41;58340.72;;;2.24;77.87
7836;BME280;3963;42.658;23.298;2023-03-13T07:41:10;58331.94;;;2.20;78.74
7836;BME280;3963;42.658;23.298;2023-03-13T07:43:37;58362.16;;;2.54;77.48
7836;BME280;3963;42.658;23.298;2023-03-13T07:46:07;58375.63;;;2.60;75.75
7836;BME280;3963;42.658;23.298;2023-03-13T07:48:36;58396.78;;;2.65;76.15
7836;BME280;3963;42.658;23.298;2023-03-13T07:51:05;58380.09;;;2.86;75.33
7836;BME280;3963;42.658;23.298;2023-03-13T07:53:32;58408.56;;;2.82;73.57
7836;BME280;3963;42.658;23.298;2023-03-13T07:56:01;58399.44;;;3.00;71.93
7836;BME280;3963;42.658;23.298;2023-03-13T07:58:30;58431.97;;;2.94;72.14
7836;BME280;3963;42.658;23.298;2023-03-13T08:00:57;58366.06;;;2.95;72.86
7836;BME280;3963;42.658;23.298;2023-03-13T08:03:26;58426.88;;;2.94;73.48
7836;BME280;3963;42.658;23.298;2023-03-13T08:05:58;58411.19;;;2.84;73.30
7836;BME280;3963;42.658;23.298;2023-03-13T08:08:24;58411.28;;;2.87;74.22
7836;BME280;3963;42.658;23.298;2023-03-13T08:10:51;58447.66;;;3.04;73.23
7836;BME280;3963;42.658;23.298;2023-03-13T08:13:18;58440.63;;;3.07;72.47
7836;BME280;3963;42.658;23.298;2023-03-13T08:15:45;58449.84;;;3.23;72.36
7836;BME280;3963;42.658;23.298;2023-03-13T08:18:11;58466.47;;;3.32;71.21
7836;BME280;3963;42.658;23.298;2023-03-13T08:20:39;58468.53;;;3.31;71.31
7836;BME280;3963;42.658;23.298;2023-03-13T08:23:06;58474.94;;;3.55;70.73
7836;BME280;3963;42.658;23.298;2023-03-13T08:25:33;58574.31;;;4.18;68.07
7836;BME280;3963;42.658;23.298;2023-03-13T08:27:59;58632.44;;;4.71;66.28
7836;BME280;3963;42.658;23.298;2023-03-13T08:30:26;58748.22;;;5.74;63.61
7836;BME280;3963;42.658;23.298;2023-03-13T08:32:53;58900.44;;;6.84;59.18
7836;BME280;3963;42.658;23.298;2023-03-13T08:35:21;58885.06;;;6.55;57.43
7836;BME280;3963;42.658;23.298;2023-03-13T08:37:50;59005.84;;;7.57;55.56
7836;BME280;3963;42.658;23.298;2023-03-13T08:40:17;59068.88;;;8.24;52.13
7836;BME280;3963;42.658;23.298;2023-03-13T08:42:44;59203.06;;;9.03;50.46
7836;BME280;3963;42.658;23.298;2023-03-13T08:45:11;59184.75;;;8.95;49.39
7836;BME280;3963;42.658;23.298;2023-03-13T08:47:37;59154.09;;;8.73;50.61
7836;BME280;3963;42.658;23.298;2023-03-13T08:50:05;59270.06;;;9.44;48.48
7836;BME280;3963;42.658;23.298;2023-03-13T08:52:32;59358.41;;;10.03;46.17
7836;BME280;3963;42.658;23.298;2023-03-13T08:55:00;59404.41;;;10.64;44.85
7836;BME280;3963;42.658;23.298;2023-03-13T08:57:27;59331.00;;;10.04;45.22
7836;BME280;3963;42.658;23.298;2023-03-13T08:59:53;59368.34;;;10.22;45.62
7836;BME280;3963;42.658;23.298;2023-03-13T09:02:20;59209.50;;;8.94;47.57
7836;BME280;3963;42.658;23.298;2023-03-13T09:04:47;59310.06;;;9.50;46.81
7836;BME280;3963;42.658;23.298;2023-03-13T09:07:14;59407.03;;;10.49;44.64
7836;BME280;3963;42.658;23.298;2023-03-13T09:09:41;59441.16;;;10.79;44.09
7836;BME280;3963;42.658;23.298;2023-03-13T09:12:10;59455.16;;;10.94;42.94
7836;BME280;3963;42.658;23.298;2023-03-13T09:14:37;59481.50;;;10.92;43.22
7836;BME280;3963;42.658;23.298;2023-03-13T09:17:03;59509.47;;;11.38;42.56
7836;BME280;3963;42.658;23.298;2023-03-13T09:19:30;59555.47;;;11.50;42.23
7836;BME280;3963;42.658;23.298;2023-03-13T09:21:57;59619.56;;;12.20;40.88
7836;BME280;3963;42.658;23.298;2023-03-13T09:24:24;59521.16;;;11.47;41.30
7836;BME280;3963;42.658;23.298;2023-03-13T09:26:51;59555.25;;;11.74;40.36
7836;BME280;3963;42.658;23.298;2023-03-13T09:29:19;59561.91;;;11.56;41.66
7836;BME280;3963;42.658;23.298;2023-03-13T09:31:46;59635.78;;;12.23;39.94
7836;BME280;3963;42.658;23.298;2023-03-13T09:34:13;59664.81;;;12.53;39.25
7836;BME280;3963;42.658;23.298;2023-03-13T09:36:39;59702.94;;;12.59;38.49
7836;BME280;3963;42.658;23.298;2023-03-13T09:39:06;59708.34;;;12.50;38.78
7836;BME280;3963;42.658;23.298;2023-03-13T09:41:37;59761.91;;;12.98;38.34
7836;BME280;3963;42.658;23.298;2023-03-13T09:44:09;59695.53;;;12.40;39.34
7836;BME280;3963;42.658;23.298;2023-03-13T09:46:42;59616.69;;;11.81;41.01
7836;BME280;3963;42.658;23.298;2023-03-13T09:49:22;59786.00;;;13.03;39.11
7836;BME280;3963;42.658;23.298;2023-03-13T09:51:59;59726.25;;;12.89;38.20
7836;BME280;3963;42.658;23.298;2023-03-13T09:54:34;59807.03;;;13.40;38.15
7836;BME280;3963;42.658;23.298;2023-03-13T09:57:06;59846.78;;;13.77;36.59
7836;BME280;3963;42.658;23.298;2023-03-13T09:59:43;59897.25;;;14.08;36.18
7836;BME280;3963;42.658;23.298;2023-03-13T10:02:22;59877.06;;;13.96;36.31
7836;BME280;3963;42.658;23.298;2023-03-13T10:04:52;59906.47;;;14.19;36.50
7836;BME280;3963;42.658;23.298;2023-03-13T10:07:22;59931.94;;;14.48;35.04
7836;BME280;3963;42.658;23.298;2023-03-13T10:09:49;59792.94;;;13.39;37.00
7836;BME280;3963;42.658;23.298;2023-03-13T10:12:18;59861.88;;;13.62;36.73
7836;BME280;3963;42.658;23.298;2023-03-13T10:14:53;59768.47;;;12.92;37.89
7836;BME280;3963;42.658;23.298;2023-03-13T10:17:31;59775.28;;;13.08;38.15
7836;BME280;3963;42.658;23.298;2023-03-13T10:20:01;59771.22;;;12.97;38.31
7836;BME280;3963;42.658;23.298;2023-03-13T10:22:33;59673.41;;;12.46;39.30
7836;BME280;3963;42.658;23.298;2023-03-13T10:25:03;59826.25;;;13.70;37.76
7836;BME280;3963;42.658;23.298;2023-03-13T10:27:42;59802.94;;;13.26;36.48
7836;BME280;3963;42.658;23.298;2023-03-13T10:30:20;59864.28;;;13.72;36.65
7836;BME280;3963;42.658;23.298;2023-03-13T10:32:50;59714.13;;;12.67;38.39
7836;BME280;3963;42.658;23.298;2023-03-13T10:35:21;59832.97;;;13.38;37.37
7836;BME280;3963;42.658;23.298;2023-03-13T10:37:49;59871.28;;;13.78;37.83
7836;BME280;3963;42.658;23.298;2023-03-13T10:40:21;59965.72;;;14.45;36.12
7836;BME280;3963;42.658;23.298;2023-03-13T10:42:50;60035.19;;;14.95;35.40
7836;BME280;3963;42.658;23.298;2023-03-13T10:45:18;59959.78;;;14.39;35.74
7836;BME280;3963;42.658;23.298;2023-03-13T10:47:54;59983.41;;;14.59;35.35
7836;BME280;3963;42.658;23.298;2023-03-13T10:50:23;59775.38;;;12.96;38.80
7836;BME280;3963;42.658;23.298;2023-03-13T10:52:51;59794.41;;;13.36;37.32
7836;BME280;3963;42.658;23.298;2023-03-13T10:55:19;59856.41;;;13.69;37.20
7836;BME280;3963;42.658;23.298;2023-03-13T10:57:56;59964.28;;;14.49;36.06
7836;BME280;3963;42.658;23.298;2023-03-13T11:00:31;59812.31;;;13.43;36.92
7836;BME280;3963;42.658;23.298;2023-03-13T11:03:00;59774.91;;;13.12;37.80
7836;BME280;3963;42.658;23.298;2023-03-13T11:05:39;59902.28;;;14.03;36.79
7836;BME280;3963;42.658;23.298;2023-03-13T11:08:20;59882.66;;;13.92;36.59
7836;BME280;3963;42.658;23.298;2023-03-13T11:10:53;59810.16;;;13.55;37.32
7836;BME280;3963;42.658;23.298;2023-03-13T11:13:29;59945.53;;;14.33;36.44
7836;BME280;3963;42.658;23.298;2023-03-13T11:16:10;59979.44;;;14.65;35.67
7836;BME280;3963;42.658;23.298;2023-03-13T11:18:50;59957.53;;;14.50;36.29
7836;BME280;3963;42.658;23.298;2023-03-13T11:21:26;59972.63;;;14.49;36.09
7836;BME280;3963;42.658;23.298;2023-03-13T11:23:57;59993.59;;;14.83;35.43
7836;BME280;3963;42.658;23.298;2023-03-13T11:26:33;59937.44;;;14.26;36.54
7836;BME280;3963;42.658;23.298;2023-03-13T11:29:08;59980.53;;;14.52;35.75
7836;BME280;3963;42.658;23.298;2023-03-13T11:31:41;59958.34;;;14.43;35.69
7836;BME280;3963;42.658;23.298;2023-03-13T11:34:18;59963.44;;;14.55;36.15
7836;BME280;3963;42.658;23.298;2023-03-13T11:36:52;59959.28;;;14.39;36.63
7836;BME280;3963;42.658;23.298;2023-03-13T11:42:43;59981.50;;;14.65;35.13
7836;BME280;3963;42.658;23.298;2023-03-13T11:45:26;59879.72;;;13.81;37.21
7836;BME280;3963;42.658;23.298;2023-03-13T11:47:59;59859.78;;;13.77;36.55
7836;BME280;3963;42.658;23.298;2023-03-13T11:50:36;59804.56;;;13.28;37.37
7836;BME280;3963;42.658;23.298;2023-03-13T11:53:27;59877.16;;;13.52;38.14
7836;BME280;3963;42.658;23.298;2023-03-13T11:56:07;59909.56;;;14.02;37.02
7836;BME280;3963;42.658;23.298;2023-03-13T11:59:12;59955.50;;;14.35;36.13
7836;BME280;3963;42.658;23.298;2023-03-13T12:01:45;59922.59;;;14.02;36.37
7836;BME280;3963;42.658;23.298;2023-03-13T12:04:21;59901.84;;;14.05;36.81
7836;BME280;3963;42.658;23.298;2023-03-13T12:06:55;59912.78;;;14.05;36.69
7836;BME280;3963;42.658;23.298;2023-03-13T12:09:28;59797.97;;;13.49;37.99
7836;BME280;3963;42.658;23.298;2023-03-13T12:11:58;59895.44;;;13.69;37.45
7836;BME280;3963;42.658;23.298;2023-03-13T12:14:30;59875.34;;;13.60;37.94
7836;BME280;3963;42.658;23.298;2023-03-13T12:17:01;59819.47;;;13.54;37.86
7836;BME280;3963;42.658;23.298;2023-03-13T12:19:32;59852.81;;;13.71;37.79
7836;BME280;3963;42.658;23.298;2023-03-13T12:22:11;59811.88;;;13.45;37.54
7836;BME280;3963;42.658;23.298;2023-03-13T12:24:44;59797.03;;;13.21;38.01
7836;BME280;3963;42.658;23.298;2023-03-13T12:27:17;59762.38;;;12.96;38.54
7836;BME280;3963;42.658;23.298;2023-03-13T12:29:50;59724.03;;;12.84;39.76
7836;BME280;3963;42.658;23.298;2023-03-13T12:32:24;59692.22;;;12.49;40.35
7836;BME280;3963;42.658;23.298;2023-03-13T12:35:00;59703.06;;;12.47;40.68
7836;BME280;3963;42.658;23.298;2023-03-13T12:37:38;59656.03;;;12.08;41.06
7836;BME280;3963;42.658;23.298;2023-03-13T12:40:15;59690.63;;;12.33;41.09
7836;BME280;3963;42.658;23.298;2023-03-13T12:42:48;59666.81;;;12.35;40.73
7836;BME280;3963;42.658;23.298;2023-03-13T12:45:18;59687.25;;;12.25;40.34
7836;BME280;3963;42.658;23.298;2023-03-13T12:48:09;59667.50;;;12.09;41.15
7836;BME280;3963;42.658;23.298;2023-03-13T12:50:52;59674.47;;;12.15;40.66
7836;BME280;3963;42.658;23.298;2023-03-13T12:53:58;59642.50;;;12.07;41.03
7836;BME280;3963;42.658;23.298;2023-03-13T12:56:40;59613.47;;;11.92;40.79
7836;BME280;3963;42.658;23.298;2023-03-13T12:59:15;59599.00;;;11.79;41.93
7836;BME280;3963;42.658;23.298;2023-03-13T13:01:46;59614.81;;;11.86;41.34
7836;BME280;3963;42.658;23.298;2023-03-13T13:04:15;59588.00;;;11.76;41.56
7836;BME280;3963;42.658;23.298;2023-03-13T13:06:51;59523.38;;;11.51;43.16
7836;BME280;3963;42.658;23.298;2023-03-13T13:09:22;59584.44;;;11.62;42.58
7836;BME280;3963;42.658;23.298;2023-03-13T13:11:51;59506.75;;;11.19;42.62
7836;BME280;3963;42.658;23.298;2023-03-13T13:17:57;59537.09;;;11.42;42.11
7836;BME280;3963;42.658;23.298;2023-03-13T13:20:44;59553.91;;;11.34;42.58
7836;BME280;3963;42.658;23.298;2023-03-13T13:23:22;59515.41;;;11.15;42.29
7836;BME280;3963;42.658;23.298;2023-03-13T13:25:53;59512.59;;;10.92;44.06
7836;BME280;3963;42.658;23.298;2023-03-13T13:28:25;59569.66;;;11.24;42.96
7836;BME280;3963;42.658;23.298;2023-03-13T13:30:55;59542.66;;;11.38;42.47
7836;BME280;3963;42.658;23.298;2023-03-13T13:33:38;59521.59;;;11.13;43.35